Time;durP1;ratioP1;P1;durP2;ratioP2;P2;SDS_P1;SDS_P2;PMS_P1;PMS_P2;Temp;Humidity;BMP_temperature;BMP_pressure;BME280_temperature;BME280_humidity;BME280_pressure;Samples;Min_cycle;Max_cycle;Signal;HPM_P1;HPM_P2
2022/03/19 00:00:34;;;;;;;6.55;3.70;;;2.10;1.40;;;2.87;100.00;97372.34;648804;212;42652;-77
2022/03/19 00:03:22;;;;;;;8.23;5.00;;;2.20;1.40;;;2.91;100.00;97375.51;645450;212;31675;-76
2022/03/19 00:06:10;;;;;;;8.07;6.07;;;2.20;1.40;;;2.87;100.00;97383.62;621802;222;31972;-77
2022/03/19 00:08:53;;;;;;;6.35;5.07;;;2.20;1.40;;;2.98;100.00;97389.40;649365;212;31547;-78
2022/03/19 00:11:35;;;;;;;7.40;5.10;;;2.20;1.40;;;2.89;100.00;97387.44;648775;212;31592;-77
2022/03/19 00:14:17;;;;;;;7.53;5.75;;;2.30;1.40;;;3.02;100.00;97380.61;647842;216;31590;-78
2022/03/19 00:16:59;;;;;;;8.95;5.50;;;2.30;1.40;;;3.08;100.00;97380.33;619866;226;43294;-77
2022/03/19 00:19:40;;;;;;;7.25;5.43;;;2.30;1.40;;;3.24;100.00;97382.80;621289;222;32696;-77
2022/03/19 00:22:22;;;;;;;6.47;4.45;;;2.40;1.40;;;3.24;100.00;97389.27;623384;226;32151;-77
2022/03/19 00:25:04;;;;;;;8.15;5.72;;;2.40;1.40;;;3.14;100.00;97374.59;647529;212;31898;-77
2022/03/19 00:27:47;;;;;;;8.93;5.22;;;2.40;1.40;;;3.11;100.00;97376.17;648490;216;31574;-78
2022/03/19 00:30:29;;;;;;;7.37;5.72;;;2.30;1.40;;;3.15;100.00;97377.02;647383;212;33346;-77
2022/03/19 00:35:52;;;;;;;7.35;4.37;;;2.30;1.40;;;3.10;100.00;97368.46;648497;216;31652;-78
2022/03/19 00:38:33;;;;;;;11.32;6.97;;;2.30;1.40;;;3.29;100.00;97365.89;643332;215;31564;-76
2022/03/19 00:41:15;;;;;;;9.50;4.72;;;2.30;1.40;;;3.23;100.00;97360.78;648029;212;32133;-77
2022/03/19 00:44:03;;;;;;;8.03;5.30;;;2.40;1.40;;;3.23;100.00;97364.61;646959;216;31571;-75
2022/03/19 00:46:50;;;;;;;7.72;5.43;;;2.30;1.40;;;3.19;100.00;97362.47;649896;216;31566;-78
2022/03/19 00:49:35;;;;;;;6.20;4.97;;;2.30;1.40;;;3.23;100.00;97365.06;617693;224;31902;-77
2022/03/19 00:52:17;;;;;;;10.10;5.22;;;2.40;1.40;;;3.33;100.00;97358.06;647564;212;31598;-77
2022/03/19 00:57:40;;;;;;;7.10;4.97;;;2.30;1.40;;;3.17;100.00;97359.94;649552;212;31536;-77
2022/03/19 01:00:26;;;;;;;9.43;5.28;;;2.30;1.40;;;3.10;100.00;97358.72;650035;216;31643;-77
2022/03/19 01:03:06;;;;;;;7.30;5.93;;;2.20;1.40;;;3.02;100.00;97364.19;648335;216;31581;-78
2022/03/19 01:05:48;;;;;;;8.20;6.32;;;2.20;1.40;;;2.89;100.00;97357.93;648821;216;31564;-77
2022/03/19 01:08:29;;;;;;;6.43;5.45;;;2.00;1.40;;;2.87;100.00;97358.97;620360;226;31928;-78
2022/03/19 01:11:11;;;;;;;8.07;5.60;;;2.00;1.40;;;2.91;100.00;97355.06;647821;216;31620;-78
2022/03/19 01:13:54;;;;;;;8.60;5.87;;;2.00;1.40;;;2.86;100.00;97353.64;647912;216;43866;-77
2022/03/19 01:16:34;;;;;;;7.70;6.07;;;2.10;1.40;;;2.87;100.00;97345.70;630957;221;31862;-77
2022/03/19 01:19:52;;;;;;;7.60;5.43;;;2.10;1.40;;;2.97;100.00;97343.89;624100;226;32470;-77
2022/03/19 01:21:58;;;;;;;9.60;6.20;;;2.00;1.40;;;2.85;100.00;97339.69;619592;222;34797;-77
2022/03/19 01:24:40;;;;;;;7.10;6.50;;;2.00;1.40;;;2.91;100.00;97332.92;647001;216;32374;-78
2022/03/19 01:27:27;;;;;;;7.53;5.40;;;2.10;1.40;;;2.98;100.00;97332.82;642103;217;31533;-77
2022/03/19 01:30:16;;;;;;;7.95;6.30;;;2.10;1.40;;;2.99;100.00;97325.36;648660;216;31618;-78
2022/03/19 01:35:58;;;;;;;9.10;6.50;;;2.00;1.40;;;2.85;100.00;97312.31;643830;216;31532;-78
2022/03/19 01:38:40;;;;;;;7.97;6.03;;;1.90;1.40;;;2.76;100.00;97311.28;649540;216;31546;-78
2022/03/19 01:41:21;;;;;;;5.00;4.50;;;1.90;1.40;;;2.77;100.00;97306.97;644121;216;31593;-77
2022/03/19 01:44:03;;;;;;;8.88;6.18;;;1.90;1.40;;;2.73;100.00;97301.30;648788;216;31581;-78
2022/03/19 01:47:10;;;;;;;8.40;7.05;;;1.80;1.40;;;2.59;100.00;97293.93;646576;216;32222;-75
2022/03/19 01:49:52;;;;;;;14.48;7.05;;;1.70;1.40;;;2.51;100.00;97293.98;618986;226;32022;-79
2022/03/19 01:52:33;;;;;;;9.55;7.53;;;1.70;1.40;;;2.45;100.00;97295.03;647952;212;31592;-78
2022/03/19 01:55:15;;;;;;;8.55;5.75;;;1.70;1.40;;;2.51;100.00;97291.42;619467;226;31902;-77
2022/03/19 02:00:31;;;;;;;14.00;6.53;;;1.80;1.40;;;2.58;100.00;97289.50;622121;226;31897;-78
2022/03/19 02:03:13;;;;;;;8.52;5.78;;;1.70;1.40;;;2.41;100.00;97283.94;647630;216;32832;-80
2022/03/19 02:05:55;;;;;;;11.95;7.03;;;1.60;1.40;;;2.32;100.00;97291.79;620133;226;31902;-76
2022/03/19 02:08:39;;;;;;;11.00;6.72;;;1.50;1.40;;;2.30;100.00;97289.81;647595;212;31619;-77
2022/03/19 02:11:24;;;;;;;9.23;6.30;;;1.50;1.40;;;2.13;100.00;97290.99;646514;216;31594;-79
2022/03/19 02:14:05;;;;;;;12.35;7.85;;;1.40;1.40;;;2.01;100.00;97288.86;618081;226;32049;-77
2022/03/19 02:16:49;;;;;;;11.93;9.02;;;1.30;1.40;;;1.94;100.00;97295.00;621577;222;32145;-77
2022/03/19 02:19:31;;;;;;;8.13;5.87;;;1.20;1.40;;;1.89;100.00;97288.36;650653;212;31603;-78
2022/03/19 02:22:12;;;;;;;8.90;5.77;;;1.20;1.40;;;1.91;100.00;97286.95;654560;216;23442;-78
2022/03/19 02:27:41;;;;;;;9.95;7.82;;;1.20;1.40;;;2.07;100.00;97290.48;645287;216;32126;-77
2022/03/19 02:30:26;;;;;;;7.68;4.05;;;1.30;1.40;;;2.20;100.00;97285.20;647986;216;31560;-77
2022/03/19 02:35:53;;;;;;;5.55;4.75;;;1.30;1.40;;;2.08;100.00;97284.10;619257;226;32052;-74
2022/03/19 02:38:36;;;;;;;14.32;6.20;;;1.30;1.40;;;2.07;100.00;97286.77;648725;212;31538;-78
2022/03/19 02:41:18;;;;;;;7.22;6.47;;;1.30;1.40;;;2.14;100.00;97281.88;648860;216;31634;-77
2022/03/19 02:44:09;;;;;;;11.70;7.95;;;1.40;1.40;;;2.12;100.00;97284.64;646540;216;33769;-74
2022/03/19 02:46:59;;;;;;;11.12;6.65;;;1.50;1.40;;;2.29;100.00;97281.39;649356;216;31608;-78
2022/03/19 02:49:41;;;;;;;6.90;5.20;;;1.50;1.40;;;2.31;100.00;97280.30;621925;226;32071;-77
2022/03/19 02:52:29;;;;;;;8.68;7.50;;;1.50;1.40;;;2.22;100.00;97270.17;646459;216;31893;-74
2022/03/19 02:55:10;;;;;;;14.67;8.50;;;1.40;1.40;;;2.12;100.00;97273.34;646364;216;31618;-77
2022/03/19 02:57:52;;;;;;;15.15;7.00;;;1.30;1.40;;;2.18;100.00;97272.69;646157;216;42648;-74
2022/03/19 03:00:37;;;;;;;10.90;6.55;;;1.40;1.40;;;2.11;100.00;97266.60;647460;216;31573;-75
2022/03/19 03:03:21;;;;;;;10.93;7.45;;;1.30;1.40;;;2.00;100.00;97269.55;647401;212;32139;-78
2022/03/19 03:06:02;;;;;;;13.55;8.07;;;1.20;1.40;;;2.03;100.00;97266.97;620370;222;31902;-77
2022/03/19 03:08:50;;;;;;;14.10;6.50;;;1.10;1.40;;;1.92;100.00;97262.30;634888;216;31978;-77
2022/03/19 03:11:38;;;;;;;8.98;6.80;;;1.10;1.40;;;1.79;100.00;97257.50;619757;222;31983;-78
2022/03/19 03:14:20;;;;;;;10.88;5.72;;;0.90;1.40;;;1.65;100.00;97262.48;649316;216;31567;-77
2022/03/19 03:17:02;;;;;;;15.18;7.82;;;0.80;1.40;;;1.58;100.00;97260.59;650180;216;31573;-78
2022/03/19 03:19:44;;;;;;;9.95;5.55;;;0.70;1.40;;;1.45;100.00;97262.96;621556;226;32092;-77
2022/03/19 03:22:28;;;;;;;11.27;6.10;;;0.60;1.40;;;1.50;100.00;97258.60;620208;222;32150;-77
2022/03/19 03:25:11;;;;;;;10.45;6.40;;;0.70;1.40;;;1.41;100.00;97256.80;620273;226;31889;-77
2022/03/19 03:27:52;;;;;;;9.98;6.65;;;0.50;1.40;;;1.21;100.00;97254.48;620263;222;31925;-77
2022/03/19 03:30:33;;;;;;;8.93;6.50;;;0.40;1.40;;;1.16;100.00;97253.34;649980;216;31624;-77
2022/03/19 03:35:51;;;;;;;12.52;5.25;;;0.40;1.40;;;1.23;100.00;97249.06;633807;222;31793;-77
2022/03/19 03:38:33;;;;;;;10.98;6.00;;;0.50;1.40;;;1.13;100.00;97253.76;622169;226;32003;-77
2022/03/19 03:41:15;;;;;;;10.52;5.75;;;0.30;1.40;;;1.24;100.00;97249.28;621093;226;42800;-78
2022/03/19 03:43:56;;;;;;;7.97;5.12;;;0.30;1.40;;;1.26;100.00;97246.56;621593;225;42560;-78
2022/03/19 03:46:38;;;;;;;10.77;7.37;;;0.40;1.40;;;1.27;100.00;97250.83;643276;214;31632;-77
2022/03/19 03:49:20;;;;;;;8.75;7.55;;;0.20;1.40;;;1.22;100.00;97248.64;620371;226;32001;-77
2022/03/19 03:52:04;;;;;;;9.10;6.70;;;0.10;1.40;;;1.11;100.00;97250.10;645953;216;42202;-76
2022/03/19 04:05:19;;;;;;;7.93;3.60;;;-0.10;1.40;;;0.73;100.00;97242.42;645423;212;31520;-75
2022/03/19 04:08:00;;;;;;;9.38;7.00;;;-0.20;1.40;;;0.70;100.00;97250.36;639536;212;32687;-76
2022/03/19 04:10:48;;;;;;;8.77;6.67;;;-0.30;1.40;;;0.54;100.00;97239.83;647195;216;32125;-77
2022/03/19 04:13:29;;;;;;;9.10;5.90;;;-0.30;1.40;;;0.51;100.00;97236.23;642088;216;42276;-77
2022/03/19 04:16:14;;;;;;;11.38;7.15;;;-0.40;1.40;;;0.50;100.00;97233.19;647656;216;31972;-76
2022/03/19 04:18:57;;;;;;;9.35;5.68;;;-0.40;1.40;;;0.37;100.00;97230.96;648756;216;31706;-77
2022/03/19 04:21:39;;;;;;;10.65;7.50;;;-0.60;1.40;;;0.39;100.00;97234.87;618851;222;31915;-75
2022/03/19 04:24:21;;;;;;;6.60;5.07;;;-0.50;1.40;;;0.44;100.00;97229.20;621442;222;31945;-78
2022/03/19 04:27:09;;;;;;;11.45;5.65;;;-0.40;1.40;;;0.34;100.00;97233.73;646400;212;31573;-78
2022/03/19 04:29:51;;;;;;;9.40;5.47;;;-0.40;1.40;;;0.33;100.00;97235.77;646348;212;31964;-76
2022/03/19 04:32:40;;;;;;;7.85;4.87;;;-0.50;1.40;;;0.24;100.00;97230.52;649508;213;31913;-76
2022/03/19 04:38:40;;;;;;;5.80;4.50;;;-0.50;1.40;;;0.18;100.00;97226.27;646793;216;31515;-77
2022/03/19 04:41:33;;;;;;;9.75;5.85;;;-0.50;1.40;;;0.16;100.00;97230.55;622131;222;32038;-77
2022/03/19 04:44:18;;;;;;;10.38;4.55;;;-0.40;1.40;;;0.22;100.00;97224.17;645687;212;32320;-77
2022/03/19 04:47:11;;;;;;;8.18;5.45;;;-0.40;1.40;;;0.16;100.00;97224.24;620935;226;31980;-77
2022/03/19 04:49:51;;;;;;;8.73;6.77;;;-0.40;1.40;;;0.18;100.00;97222.94;620603;229;23606;-77
2022/03/19 04:52:34;;;;;;;6.78;3.70;;;-0.50;1.40;;;0.14;100.00;97225.80;621290;226;32027;-77
2022/03/19 04:55:25;;;;;;;5.40;4.85;;;-0.40;1.40;;;0.09;100.00;97228.23;646382;216;33313;-75
2022/03/19 05:08:42;;;;;;;4.20;3.53;;;-0.60;1.40;;;0.11;100.00;97221.34;635828;216;31793;-76
2022/03/19 05:11:38;;;;;;;5.30;2.83;;;-0.60;1.40;;;0.05;100.00;97216.61;620331;226;31953;-77
2022/03/19 05:14:24;;;;;;;6.43;3.83;;;-0.70;1.40;;;0.09;100.00;97218.86;643108;216;31594;-76
2022/03/19 05:17:06;;;;;;;7.80;3.42;;;-0.70;1.40;;;0.01;100.00;97215.34;645146;216;31610;-76
2022/03/19 05:30:30;;;;;;;6.45;3.20;;;-0.90;1.40;;;-0.11;100.00;97205.06;647150;212;31685;-77
2022/03/19 05:35:55;;;;;;;9.65;4.22;;;-1.00;1.40;;;-0.27;100.00;97196.75;619205;222;31920;-77
2022/03/19 05:38:43;;;;;;;5.35;4.65;;;-1.10;1.40;;;-0.36;100.00;97200.62;631962;220;31711;-76
2022/03/19 05:41:45;;;;;;;5.07;4.57;;;-1.10;1.40;;;-0.28;100.00;97195.12;622063;222;32084;-78
2022/03/19 05:44:29;;;;;;;6.22;3.37;;;-1.10;1.40;;;-0.26;100.00;97203.95;647271;216;31571;-76
2022/03/19 05:47:26;;;;;;;5.40;5.00;;;-1.10;1.40;;;-0.30;100.00;97200.34;620505;225;31951;-77
2022/03/19 05:50:27;;;;;;;6.35;3.78;;;-1.10;1.40;;;-0.19;100.00;97196.70;633166;220;31672;-77
2022/03/19 05:53:09;;;;;;;8.15;4.35;;;-1.00;1.40;;;-0.11;100.00;97196.08;648328;216;31571;-78
2022/03/19 05:55:51;;;;;;;8.40;3.60;;;-0.90;1.40;;;-0.07;100.00;97200.09;648572;212;31559;-78
2022/03/19 05:58:44;;;;;;;7.15;6.45;;;-0.90;1.40;;;0.17;100.00;97199.86;649049;216;31552;-78
2022/03/19 06:01:36;;;;;;;6.90;5.78;;;-0.70;1.40;;;0.22;100.00;97196.27;617720;222;32183;-77
2022/03/19 06:04:17;;;;;;;6.65;3.60;;;-0.60;1.40;;;0.30;100.00;97195.44;646099;212;31699;-76
2022/03/19 06:06:59;;;;;;;5.50;3.87;;;-0.50;1.40;;;0.35;100.00;97192.70;646136;216;31697;-75
2022/03/19 06:09:41;;;;;;;9.55;5.40;;;-0.30;1.40;;;0.49;100.00;97188.59;618688;222;32146;-76
2022/03/19 06:12:42;;;;;;;8.32;3.80;;;-0.20;1.40;;;0.64;100.00;97191.19;631245;220;31553;-77
2022/03/19 06:15:16;;;;;;;2.60;2.50;;;-0.10;1.40;;;0.83;100.00;97187.09;608183;229;23549;-76
2022/03/19 06:18:00;;;;;;;9.23;4.50;;;0.10;1.40;;;0.99;100.00;97193.72;646081;216;31669;-76
2022/03/19 06:20:42;;;;;;;5.55;3.87;;;0.10;1.40;;;1.10;100.00;97192.67;620632;222;31905;-76
2022/03/19 06:23:26;;;;;;;9.97;8.80;;;0.20;1.40;;;1.12;100.00;97192.16;652657;212;23449;-76
2022/03/19 06:26:07;;;;;;;6.28;4.53;;;0.20;1.40;;;1.30;100.00;97190.41;646166;212;32271;-77
2022/03/19 06:28:49;;;;;;;6.55;5.47;;;0.30;1.40;;;1.52;100.00;97192.89;647274;216;31685;-77
2022/03/19 06:31:34;;;;;;;7.30;5.20;;;0.40;1.40;;;1.74;100.00;97185.16;647329;216;31596;-77
2022/03/19 06:38:39;;;;;;;11.43;6.70;;;0.70;1.40;;;1.92;100.00;97180.13;648434;216;42875;-77
2022/03/19 06:41:27;;;;;;;10.23;6.28;;;1.00;1.40;;;2.11;100.00;97181.06;647440;216;31575;-75
2022/03/19 06:44:08;;;;;;;9.55;5.50;;;1.10;1.40;;;2.34;100.00;97173.84;646137;216;31572;-77
2022/03/19 06:46:52;;;;;;;8.65;5.90;;;1.30;1.40;;;2.50;100.00;97167.86;617907;225;32712;-77
2022/03/19 06:49:34;;;;;;;9.60;8.30;;;1.50;1.40;;;2.68;100.00;97167.02;619260;226;31964;-77
2022/03/19 06:52:16;;;;;;;9.07;5.20;;;1.60;1.40;;;2.81;100.00;97161.38;646945;212;37496;-77
2022/03/19 06:54:58;;;;;;;8.10;6.95;;;1.80;1.40;;;2.97;100.00;97163.81;648317;212;32165;-76
2022/03/19 06:57:40;;;;;;;13.35;8.48;;;1.90;1.40;;;2.98;100.00;97159.88;646044;212;32127;-77
2022/03/19 07:00:22;;;;;;;11.03;8.10;;;2.00;1.40;;;3.15;100.00;97158.28;620808;222;32076;-77
2022/03/19 07:03:06;;;;;;;8.90;5.43;;;2.10;1.40;;;3.30;100.00;97158.58;649343;212;31579;-77
2022/03/19 07:05:56;;;;;;;7.15;5.30;;;2.30;1.40;;;3.36;100.00;97158.59;646496;216;32205;-76
2022/03/19 07:19:08;;;;;;;10.75;6.87;;;2.90;1.40;;;3.95;100.00;97141.59;646882;212;31589;-77
2022/03/19 07:21:51;;;;;;;10.00;8.07;;;3.00;1.40;;;3.98;100.00;97141.17;647319;212;31592;-77
2022/03/19 07:24:44;;;;;;;10.43;6.95;;;3.10;1.40;;;4.08;100.00;97140.70;647748;212;31585;-76
2022/03/19 07:27:26;;;;;;;11.15;7.18;;;3.30;1.40;;;4.43;100.00;97134.38;646803;216;31584;-77
2022/03/19 07:30:11;;;;;;;10.13;7.00;;;3.50;1.40;;;4.59;100.00;97137.72;646566;216;31589;-76
2022/03/19 07:32:56;;;;;;;13.15;8.60;;;3.70;1.40;;;4.61;100.00;97135.42;647351;212;31552;-77
2022/03/19 07:35:57;;;;;;;8.60;7.25;;;3.80;1.40;;;4.85;100.00;97138.41;646154;212;31555;-76
2022/03/19 07:38:45;;;;;;;9.75;7.40;;;4.10;1.40;;;5.11;98.25;97142.10;647471;212;31909;-79
2022/03/19 07:44:15;;;;;;;10.60;6.90;;;4.30;1.40;;;5.51;94.39;97136.31;649016;216;31576;-78
2022/03/19 07:46:57;;;;;;;11.65;6.30;;;4.60;1.40;;;5.55;88.39;97137.34;646922;212;31592;-77
2022/03/19 07:49:44;;;;;;;10.02;6.53;;;4.70;1.40;;;5.64;88.58;97129.20;647245;212;31620;-78
2022/03/19 07:52:28;;;;;;;7.45;5.62;;;4.80;1.40;;;5.79;88.30;97125.98;647762;216;42456;-78
2022/03/19 07:55:10;;;;;;;8.25;6.18;;;5.00;1.40;;;6.13;87.51;97129.34;621115;226;32027;-81
2022/03/19 07:57:57;;;;;;;9.02;5.82;;;5.20;1.40;;;6.29;83.31;97127.86;646780;212;32085;-78
2022/03/19 08:00:45;;;;;;;8.50;6.00;;;5.20;1.40;;;6.35;81.35;97133.19;646479;212;31572;-77
2022/03/19 08:03:30;;;;;;;9.25;5.53;;;5.20;1.40;;;6.17;80.36;97129.22;649340;216;31602;-78
2022/03/19 08:06:12;;;;;;;9.27;6.55;;;5.20;1.40;;;6.49;81.09;97122.77;645560;216;31639;-78
2022/03/19 08:09:02;;;;;;;11.35;7.15;;;5.50;1.40;;;6.49;77.16;97119.37;632495;216;42908;-77
2022/03/19 08:11:50;;;;;;;8.15;5.75;;;5.70;1.40;;;6.75;78.02;97117.00;647644;216;32200;-78
2022/03/19 08:14:32;;;;;;;7.37;5.72;;;5.80;1.40;;;6.83;75.07;97116.03;647498;212;31668;-78
2022/03/19 08:17:15;;;;;;;10.48;6.55;;;5.70;1.40;;;6.95;74.51;97108.05;645912;212;31578;-78
2022/03/19 08:19:58;;;;;;;8.70;6.25;;;5.80;1.40;;;6.95;73.45;97108.52;646714;212;31587;-78
2022/03/19 08:22:47;;;;;;;9.82;6.03;;;6.00;1.40;;;6.99;72.61;97102.73;647011;216;31622;-78
2022/03/19 08:25:37;;;;;;;9.07;6.62;;;6.20;1.40;;;7.33;72.52;97101.58;621701;222;42617;-78
2022/03/19 08:28:21;;;;;;;6.27;5.67;;;6.50;1.40;;;7.36;71.24;97101.79;641559;220;24588;-78
2022/03/19 08:31:05;;;;;;;10.40;7.18;;;6.70;1.40;;;7.25;64.72;97095.61;647793;216;31537;-78
2022/03/19 08:35:51;;;;;;;7.43;6.10;;;6.80;1.40;;;7.90;65.70;97088.08;621110;226;32020;-78
2022/03/19 08:41:26;;;;;;;8.10;6.95;;;6.80;1.40;;;7.80;61.55;97081.68;646989;212;31550;-76
2022/03/19 08:44:09;;;;;;;8.27;4.90;;;7.00;1.40;;;8.10;61.54;97083.85;620665;226;42595;-78
2022/03/19 08:46:53;;;;;;;10.97;7.30;;;7.30;1.40;;;7.78;60.14;97076.89;647470;212;31707;-78
2022/03/19 08:49:40;;;;;;;9.48;7.10;;;7.20;1.40;;;7.12;60.13;97078.69;621346;225;32555;-79
2022/03/19 08:52:26;;;;;;;10.77;7.53;;;6.70;1.40;;;7.36;62.74;97072.33;648019;216;31597;-79
2022/03/19 08:55:14;;;;;;;9.52;6.00;;;7.20;1.40;;;8.08;60.84;97073.56;640192;215;32289;-77
2022/03/19 08:57:56;;;;;;;11.27;7.30;;;7.70;1.40;;;8.08;60.74;97069.83;644304;216;31555;-77
2022/03/19 09:00:40;;;;;;;9.87;6.60;;;7.80;1.40;;;9.00;59.69;97058.66;648795;212;31565;-78
2022/03/19 09:03:20;;;;;;;9.30;6.90;;;8.40;1.40;;;9.19;58.00;97059.73;619995;222;32095;-79
2022/03/19 09:06:02;;;;;;;9.38;6.65;;;8.70;1.40;;;8.66;58.96;97059.02;644109;216;31941;-78
2022/03/19 09:11:23;;;;;;;7.03;6.25;;;11.30;1.40;;;12.86;53.60;97041.05;647911;216;31627;-78
2022/03/19 09:14:03;;;;;;;9.83;7.50;;;14.30;1.40;;;13.56;46.82;97039.02;647408;212;31556;-79
2022/03/19 09:16:45;;;;;;;9.17;7.50;;;14.10;1.40;;;13.33;47.32;97033.83;647443;216;31568;-78
2022/03/19 09:19:28;;;;;;;12.37;8.23;;;12.60;1.40;;;10.77;47.26;97036.67;617988;223;34282;-77
2022/03/19 09:22:09;;;;;;;9.15;7.28;;;11.30;1.40;;;13.49;47.31;97029.33;616764;225;31931;-78
2022/03/19 09:24:51;;;;;;;10.00;8.57;;;13.40;1.40;;;13.58;42.97;97024.59;646035;216;31577;-78
2022/03/19 09:27:39;;;;;;;10.15;8.75;;;13.00;1.40;;;13.34;41.41;97022.75;646418;212;31643;-76
2022/03/19 09:30:23;;;;;;;9.70;8.20;;;13.00;1.40;;;15.66;39.88;97012.42;618408;226;42725;-77
2022/03/19 09:35:53;;;;;;;10.10;8.23;;;14.80;1.40;;;17.45;40.30;97001.21;646367;216;31625;-77
2022/03/19 09:38:40;;;;;;;10.93;8.35;;;15.70;1.40;;;19.44;37.25;96989.77;646863;212;31552;-78
2022/03/19 09:41:28;;;;;;;11.93;8.85;;;15.80;1.40;;;18.02;37.97;96993.80;618062;222;31945;-77
2022/03/19 09:44:17;;;;;;;11.30;8.60;;;15.30;1.40;;;17.12;35.97;96986.86;648054;216;31574;-76
2022/03/19 09:46:59;;;;;;;12.37;9.82;;;15.60;1.40;;;15.42;36.21;96990.84;632695;222;31786;-77
2022/03/19 09:49:41;;;;;;;10.77;8.30;;;13.50;1.40;;;15.88;40.13;96982.70;619216;222;32107;-76
2022/03/19 09:52:25;;;;;;;12.13;8.63;;;14.70;1.40;;;16.79;35.08;96975.71;647379;216;31527;-76
2022/03/19 09:55:08;;;;;;;11.20;9.02;;;15.20;1.40;;;18.31;35.50;96972.37;646744;216;32212;-77
2022/03/19 09:57:49;;;;;;;9.77;8.77;;;16.00;1.40;;;20.70;32.94;96961.17;645643;212;31597;-76
2022/03/19 10:00:36;;;;;;;9.80;8.13;;;17.60;1.40;;;20.47;32.37;96967.35;649106;216;31691;-77
2022/03/19 10:03:22;;;;;;;9.07;8.00;;;17.10;1.40;;;21.24;31.00;96956.78;653272;216;22475;-76
2022/03/19 10:08:58;;;;;;;9.45;8.13;;;17.60;1.40;;;22.65;31.50;96949.33;646452;212;42384;-76
2022/03/19 10:11:40;;;;;;;9.88;8.88;;;18.50;1.40;;;22.75;29.05;96946.70;619147;225;42716;-77
2022/03/19 10:14:22;;;;;;;10.82;8.95;;;19.10;1.40;;;21.91;28.56;96948.30;646936;216;31573;-77
2022/03/19 10:17:06;;;;;;;10.50;8.82;;;18.70;1.40;;;23.29;29.17;96934.96;646786;216;31660;-77
2022/03/19 10:19:51;;;;;;;10.45;8.88;;;18.50;1.40;;;21.27;29.69;96939.11;619807;222;42592;-77
2022/03/19 10:22:39;;;;;;;10.88;9.07;;;17.50;1.40;;;21.27;30.89;96938.16;646923;216;32467;-76
2022/03/19 10:25:21;;;;;;;9.95;8.95;;;17.00;1.40;;;20.93;30.22;96937.03;645991;216;42238;-76
2022/03/19 10:28:11;;;;;;;10.88;9.00;;;17.60;1.40;;;22.56;28.58;96924.65;618323;222;32765;-76
2022/03/19 10:30:51;;;;;;;10.13;8.10;;;18.10;1.40;;;23.30;27.26;96920.19;619238;222;32609;-76
2022/03/19 10:35:51;;;;;;;10.02;8.65;;;17.50;1.40;;;18.45;30.58;96924.83;647020;216;36285;-77
2022/03/19 10:38:42;;;;;;;10.32;8.68;;;16.00;1.40;;;19.27;28.80;96917.21;619742;226;32808;-77
2022/03/19 10:41:34;;;;;;;9.38;8.32;;;17.50;1.40;;;18.31;29.00;96915.36;646634;216;31660;-76
2022/03/19 10:44:24;;;;;;;10.27;8.00;;;16.20;1.40;;;21.40;29.40;96897.01;647626;212;31593;-78
2022/03/19 10:47:05;;;;;;;10.43;8.07;;;18.60;1.40;;;24.92;26.39;96882.02;647507;216;31722;-77
2022/03/19 10:49:46;;;;;;;11.05;8.05;;;20.10;1.40;;;21.93;27.84;96890.23;648339;212;31640;-78
2022/03/19 10:52:30;;;;;;;10.82;8.27;;;19.00;1.40;;;18.35;29.94;96888.77;619754;222;31962;-78
2022/03/19 10:55:18;;;;;;;7.97;7.18;;;16.30;1.40;;;21.56;29.09;96878.21;646782;212;31750;-76
2022/03/19 10:58:08;;;;;;;8.82;7.43;;;18.60;1.40;;;22.26;28.23;96867.11;647755;216;32056;-78
2022/03/19 11:00:50;;;;;;;9.68;7.95;;;18.80;1.40;;;19.23;29.06;96872.59;647424;216;31697;-76
2022/03/19 11:03:36;;;;;;;9.10;7.45;;;16.60;1.40;;;21.60;29.31;96865.16;646478;216;31597;-76
2022/03/19 11:06:18;;;;;;;11.10;7.93;;;18.90;1.40;;;25.23;25.34;96845.07;647266;212;42193;-76
2022/03/19 11:09:06;;;;;;;8.35;7.40;;;20.50;1.40;;;26.44;24.07;96842.27;647869;216;42241;-77
2022/03/19 11:11:51;;;;;;;10.88;7.57;;;20.60;1.40;;;23.85;25.72;96843.88;647084;216;31638;-77
2022/03/19 11:14:33;;;;;;;8.50;7.60;;;19.00;1.40;;;26.14;23.89;96833.32;647017;216;31864;-77
2022/03/19 11:17:30;;;;;;;7.50;6.75;;;20.10;1.40;;;25.51;23.82;96830.36;647884;212;31545;-76
2022/03/19 11:20:14;;;;;;;10.65;7.95;;;19.00;1.40;;;23.70;24.76;96827.61;647088;216;33363;-76
2022/03/19 11:22:55;;;;;;;8.02;7.22;;;18.80;1.40;;;24.43;24.38;96823.59;648192;216;31608;-76
2022/03/19 11:25:46;;;;;;;10.60;7.37;;;19.50;1.40;;;24.52;23.24;96812.77;647885;212;31565;-76
2022/03/19 11:28:27;;;;;;;8.48;7.57;;;19.80;1.40;;;24.67;24.08;96820.02;646901;212;31555;-76
2022/03/19 11:31:09;;;;;;;8.07;7.28;;;19.60;1.40;;;24.80;24.83;96818.58;647871;216;31563;-76
2022/03/19 11:38:44;;;;;;;8.30;7.30;;;20.20;1.40;;;25.44;23.70;96804.28;647700;216;31554;-76
2022/03/19 11:41:31;;;;;;;9.55;7.18;;;19.80;1.40;;;26.71;21.96;96800.31;647193;216;32590;-76
2022/03/19 11:44:24;;;;;;;7.90;7.00;;;19.10;1.40;;;25.10;22.73;96794.82;647658;216;31633;-76
2022/03/19 11:47:09;;;;;;;8.57;7.57;;;18.30;1.40;;;24.71;23.89;96790.43;646973;212;31561;-76
2022/03/19 11:49:52;;;;;;;10.30;7.95;;;18.30;1.40;;;23.67;24.16;96786.72;620496;222;31885;-76
2022/03/19 11:53:08;;;;;;;9.52;8.05;;;17.40;1.40;;;21.68;23.44;96787.92;648041;212;32153;-78
2022/03/19 11:55:56;;;;;;;9.93;7.78;;;16.50;1.40;;;23.69;24.89;96774.47;647269;216;31603;-76
2022/03/19 11:58:44;;;;;;;9.55;7.87;;;19.00;1.40;;;19.91;24.75;96773.04;646519;212;31724;-77
2022/03/19 12:01:49;;;;;;;10.07;7.80;;;16.50;1.40;;;21.66;25.37;96765.30;646803;216;42180;-76
2022/03/19 12:04:40;;;;;;;8.77;6.90;;;16.60;1.40;;;21.00;25.18;96770.22;648266;213;31554;-76
2022/03/19 12:07:39;;;;;;;8.95;7.53;;;15.40;1.40;;;23.16;24.10;96755.47;613811;222;32804;-76
2022/03/19 12:10:21;;;;;;;10.05;7.70;;;18.70;1.40;;;22.83;23.50;96749.97;647667;212;31533;-76
2022/03/19 12:13:03;;;;;;;9.10;8.00;;;17.90;1.40;;;23.86;23.81;96741.15;647478;212;31589;-76
2022/03/19 12:15:47;;;;;;;8.85;7.50;;;19.70;1.40;;;24.21;22.28;96723.70;646961;212;31583;-76
2022/03/19 12:18:33;;;;;;;10.18;7.78;;;19.50;1.40;;;25.77;22.44;96723.95;645923;216;31932;-76
2022/03/19 12:21:21;;;;;;;8.90;7.80;;;20.20;1.40;;;26.42;23.10;96711.77;648289;216;31549;-76
2022/03/19 12:26:59;;;;;;;11.35;8.05;;;20.20;1.40;;;26.21;22.60;96708.37;645767;216;31558;-77
2022/03/19 12:29:47;;;;;;;10.00;9.00;;;20.80;1.40;;;23.16;22.94;96701.39;646126;212;31908;-76
2022/03/19 12:32:30;;;;;;;12.10;8.63;;;19.00;1.40;;;24.04;22.74;96686.84;620893;222;31990;-76
2022/03/19 12:35:56;;;;;;;8.23;7.43;;;18.60;1.40;;;26.09;22.01;96677.41;621440;226;31967;-76
2022/03/19 12:38:36;;;;;;;8.93;7.35;;;19.40;1.40;;;27.16;21.81;96675.41;620304;226;31875;-76
2022/03/19 12:43:59;;;;;;;10.00;8.30;;;20.20;1.40;;;26.59;20.71;96664.97;647937;212;31730;-76
2022/03/19 12:46:41;;;;;;;9.98;8.70;;;20.60;1.40;;;26.19;21.98;96663.93;647910;216;31576;-76
2022/03/19 12:49:23;;;;;;;10.68;8.65;;;19.90;1.40;;;21.75;24.25;96676.98;619154;226;31877;-76
2022/03/19 12:52:08;;;;;;;9.38;8.40;;;18.10;1.40;;;23.79;22.98;96662.33;647828;216;31931;-76
2022/03/19 12:54:56;;;;;;;10.10;7.47;;;18.50;1.40;;;25.91;22.09;96653.70;647770;216;31927;-75
2022/03/19 12:57:40;;;;;;;10.73;8.32;;;19.90;1.40;;;23.31;22.16;96660.93;648862;212;43865;-77
2022/03/19 13:00:22;;;;;;;11.35;8.82;;;17.30;1.40;;;23.32;24.37;96661.09;619112;222;43076;-76
2022/03/19 13:03:13;;;;;;;10.00;8.35;;;18.60;1.40;;;23.30;23.25;96656.90;647277;216;31738;-77
2022/03/19 13:06:10;;;;;;;8.70;7.80;;;19.10;1.40;;;18.41;26.92;96656.93;646512;214;31733;-77
2022/03/19 13:09:02;;;;;;;9.65;7.20;;;16.60;1.40;;;20.32;25.06;96662.67;609814;226;32149;-76
2022/03/19 13:11:53;;;;;;;8.15;7.10;;;17.10;1.40;;;23.58;23.26;96648.02;621584;223;31884;-78
2022/03/19 13:14:51;;;;;;;8.50;7.30;;;19.20;1.40;;;21.96;22.57;96647.01;621738;222;31911;-78
2022/03/19 13:17:26;;;;;;;10.43;6.90;;;16.90;1.40;;;19.36;25.66;96651.68;619013;229;23578;-78
2022/03/19 13:20:12;;;;;;;9.43;7.12;;;16.80;1.40;;;22.45;23.33;96640.66;648472;216;32117;-77
2022/03/19 13:23:01;;;;;;;7.70;6.28;;;18.60;1.40;;;23.34;22.21;96628.30;619038;226;31938;-77